Time;durP1;ratioP1;P1;durP2;ratioP2;P2;SDS_P1;SDS_P2;PMS_P1;PMS_P2;Temp;Humidity;BMP_temperature;BMP_pressure;BME280_temperature;BME280_humidity;BME280_pressure;Samples;Min_cycle;Max_cycle;Signal;HPM_P1;HPM_P2
2023/05/26 00:02:13;;;;;;;6.73;4.40;;;11.60;99.90;;;;;;5020800;28;20259;-69
2023/05/26 00:04:42;;;;;;;21.00;5.53;;;11.50;99.90;;;;;;5022225;28;20179;-70
2023/05/26 00:07:08;;;;;;;17.20;5.30;;;11.50;99.90;;;;;;5017262;28;20469;-70
2023/05/26 00:09:33;;;;;;;10.87;5.70;;;11.50;99.90;;;;;;5014091;28;20419;-69
2023/05/26 00:12:00;;;;;;;18.23;5.43;;;11.40;99.90;;;;;;5020470;28;20163;-69
2023/05/26 00:14:26;;;;;;;11.13;4.77;;;11.50;99.90;;;;;;5021099;28;20177;-69
2023/05/26 00:16:53;;;;;;;12.77;5.30;;;11.40;99.90;;;;;;5018328;28;20952;-69
2023/05/26 00:19:21;;;;;;;19.17;5.13;;;11.40;99.90;;;;;;5020548;28;20207;-69
2023/05/26 00:21:47;;;;;;;11.83;4.60;;;11.40;99.90;;;;;;5020016;28;20471;-70
2023/05/26 00:24:12;;;;;;;7.03;4.17;;;11.30;99.90;;;;;;5020972;28;20465;-70
2023/05/26 00:26:38;;;;;;;10.93;4.87;;;11.30;99.90;;;;;;5018676;28;20310;-70
2023/05/26 00:29:04;;;;;;;12.63;4.60;;;11.40;99.90;;;;;;5020652;28;20308;-68
2023/05/26 00:31:31;;;;;;;15.43;4.47;;;11.40;99.90;;;;;;5017332;28;20682;-69
2023/05/26 00:33:57;;;;;;;11.00;5.20;;;11.40;99.90;;;;;;5018315;28;20484;-69
2023/05/26 00:36:22;;;;;;;13.33;5.17;;;11.40;99.90;;;;;;5023872;28;20305;-70
2023/05/26 00:38:48;;;;;;;8.60;5.20;;;11.30;99.90;;;;;;5024405;28;20178;-69
2023/05/26 00:41:14;;;;;;;15.00;4.93;;;11.10;99.90;;;;;;5025098;28;20673;-70
2023/05/26 00:43:39;;;;;;;14.43;4.57;;;11.10;99.90;;;;;;5020176;28;20275;-70
2023/05/26 00:46:05;;;;;;;14.87;5.70;;;11.10;99.90;;;;;;5023732;28;21028;-69
2023/05/26 00:48:31;;;;;;;22.23;5.53;;;11.10;99.90;;;;;;5015056;28;20263;-69
2023/05/26 00:50:57;;;;;;;19.90;5.73;;;11.00;99.90;;;;;;5012837;28;20168;-70
2023/05/26 00:53:23;;;;;;;12.47;5.23;;;11.00;99.90;;;;;;5013058;28;20204;-70
2023/05/26 00:55:51;;;;;;;11.10;4.37;;;11.00;99.90;;;;;;5021343;28;20480;-69
2023/05/26 00:58:17;;;;;;;11.27;5.33;;;11.10;99.90;;;;;;5022594;28;20437;-70
2023/05/26 01:00:43;;;;;;;17.03;5.43;;;11.00;99.90;;;;;;5019488;28;20901;-70
2023/05/26 01:03:13;;;;;;;10.93;5.50;;;10.90;99.90;;;;;;5020424;28;20410;-70
2023/05/26 01:05:39;;;;;;;10.17;5.53;;;11.00;99.90;;;;;;5020926;28;20172;-69
2023/05/26 01:08:04;;;;;;;11.60;5.83;;;11.00;99.90;;;;;;5019952;28;20469;-69
2023/05/26 01:10:33;;;;;;;16.73;4.83;;;10.90;99.90;;;;;;5028150;28;20540;-69
2023/05/26 01:13:04;;;;;;;15.53;5.70;;;10.90;99.90;;;;;;5013032;28;20175;-69
2023/05/26 01:15:36;;;;;;;11.67;4.47;;;10.90;99.90;;;;;;5028226;28;20418;-69
2023/05/26 01:18:16;;;;;;;17.17;5.10;;;10.90;99.90;;;;;;5021176;28;20423;-69
2023/05/26 01:20:50;;;;;;;12.97;4.80;;;10.80;99.90;;;;;;5020918;28;20938;-69
2023/05/26 01:23:34;;;;;;;12.23;5.10;;;10.80;99.90;;;;;;5022333;28;20499;-70
2023/05/26 01:25:59;;;;;;;14.77;5.93;;;10.70;99.90;;;;;;5018312;28;20418;-69
2023/05/26 01:28:29;;;;;;;10.63;5.13;;;10.70;99.90;;;;;;5021974;28;20423;-69
2023/05/26 01:30:57;;;;;;;18.40;6.00;;;10.60;99.90;;;;;;5015205;28;20172;-69
2023/05/26 01:33:23;;;;;;;13.00;5.10;;;10.60;99.90;;;;;;5016577;28;20789;-69
2023/05/26 01:35:48;;;;;;;10.37;5.30;;;10.60;99.90;;;;;;5015223;28;20419;-69
2023/05/26 01:38:14;;;;;;;15.93;5.27;;;10.50;99.90;;;;;;5013444;28;20505;-70
2023/05/26 01:40:42;;;;;;;11.70;4.67;;;10.60;99.90;;;;;;5026873;28;20254;-70
2023/05/26 01:43:19;;;;;;;9.40;5.60;;;10.50;99.90;;;;;;5012970;28;20453;-69
2023/05/26 01:45:59;;;;;;;23.67;7.20;;;10.40;99.90;;;;;;5011584;28;20448;-69
2023/05/26 01:48:26;;;;;;;16.43;5.10;;;10.40;99.90;;;;;;5021686;28;20426;-69
2023/05/26 01:50:56;;;;;;;15.57;5.67;;;10.40;99.90;;;;;;5017582;28;20495;-69
2023/05/26 01:53:26;;;;;;;12.97;5.90;;;10.30;99.90;;;;;;5011941;28;20509;-69
2023/05/26 01:55:56;;;;;;;21.47;6.20;;;10.30;99.90;;;;;;5020254;28;20418;-69
2023/05/26 01:58:23;;;;;;;9.07;6.13;;;10.20;99.90;;;;;;5021409;28;20438;-69
2023/05/26 02:00:49;;;;;;;15.40;6.00;;;10.20;99.90;;;;;;5023107;28;20421;-68
2023/05/26 02:03:15;;;;;;;9.93;6.17;;;10.10;99.90;;;;;;5018705;28;20419;-69
2023/05/26 02:05:41;;;;;;;12.50;6.63;;;10.10;99.90;;;;;;5026762;28;20262;-68
2023/05/26 02:08:09;;;;;;;27.30;6.07;;;10.10;99.90;;;;;;5022617;28;20988;-69
2023/05/26 02:10:34;;;;;;;16.90;5.90;;;10.10;99.90;;;;;;5021508;28;20896;-69
2023/05/26 02:13:00;;;;;;;15.03;7.70;;;10.20;99.90;;;;;;5019717;28;20675;-69
2023/05/26 02:15:26;;;;;;;17.63;5.13;;;10.10;99.90;;;;;;5007517;28;20538;-69
2023/05/26 02:17:54;;;;;;;17.87;5.67;;;10.10;99.90;;;;;;5019329;28;20207;-69
2023/05/26 02:20:20;;;;;;;16.33;6.00;;;10.10;99.90;;;;;;5019852;28;20187;-68
2023/05/26 02:22:45;;;;;;;25.37;7.10;;;10.10;99.90;;;;;;5021546;28;20929;-69
2023/05/26 02:25:11;;;;;;;10.70;5.67;;;10.00;99.90;;;;;;5020999;28;20618;-68
2023/05/26 02:27:37;;;;;;;15.03;6.50;;;10.00;99.90;;;;;;5022386;28;20263;-69
2023/05/26 02:30:03;;;;;;;18.10;6.53;;;9.90;99.90;;;;;;5017440;28;20222;-70
2023/05/26 02:32:29;;;;;;;10.03;5.40;;;9.90;99.90;;;;;;5022801;28;20279;-69
2023/05/26 02:34:56;;;;;;;12.73;5.20;;;9.90;99.90;;;;;;5020025;28;20404;-68
2023/05/26 02:37:22;;;;;;;14.23;6.07;;;9.90;99.90;;;;;;5021531;28;20472;-68
2023/05/26 02:39:48;;;;;;;14.07;6.03;;;9.80;99.90;;;;;;5017570;28;20520;-69
2023/05/26 02:42:13;;;;;;;11.53;5.53;;;9.80;99.90;;;;;;5017636;28;20434;-70
2023/05/26 02:44:39;;;;;;;8.67;5.03;;;9.70;99.90;;;;;;5024774;28;20246;-69
2023/05/26 02:47:05;;;;;;;10.10;5.43;;;9.70;99.90;;;;;;5007893;28;20253;-68
2023/05/26 02:49:31;;;;;;;14.43;6.13;;;9.80;99.90;;;;;;5022228;28;20177;-69
2023/05/26 02:51:56;;;;;;;16.23;6.50;;;9.70;99.90;;;;;;5010865;28;20430;-69
2023/05/26 02:54:22;;;;;;;15.00;6.27;;;9.80;99.90;;;;;;5016746;28;20263;-69
2023/05/26 02:56:47;;;;;;;10.37;6.13;;;9.80;99.90;;;;;;5019484;28;20258;-69
2023/05/26 02:59:13;;;;;;;13.20;6.07;;;9.70;99.90;;;;;;5011895;28;20470;-68
2023/05/26 03:01:39;;;;;;;15.87;5.33;;;9.70;99.90;;;;;;5022662;28;20213;-69
2023/05/26 03:04:04;;;;;;;14.77;7.00;;;9.70;99.90;;;;;;5011727;28;20185;-69
2023/05/26 03:06:32;;;;;;;11.70;5.50;;;9.80;99.90;;;;;;5022090;28;20588;-69
2023/05/26 03:08:57;;;;;;;17.17;6.20;;;9.80;99.90;;;;;;5014435;28;20185;-69
2023/05/26 03:11:23;;;;;;;19.03;6.40;;;9.80;99.90;;;;;;5020055;28;20408;-69
2023/05/26 03:13:49;;;;;;;15.40;6.60;;;9.80;99.90;;;;;;5025546;28;20509;-69
2023/05/26 03:16:14;;;;;;;19.57;6.53;;;9.80;99.90;;;;;;5013047;28;20194;-69
2023/05/26 03:18:40;;;;;;;9.70;5.80;;;9.80;99.90;;;;;;5019805;28;20742;-69
2023/05/26 03:21:06;;;;;;;15.40;5.80;;;9.90;99.90;;;;;;5019157;28;20180;-68
2023/05/26 03:23:33;;;;;;;20.83;6.17;;;9.90;99.90;;;;;;5012342;28;20186;-68
2023/05/26 03:26:00;;;;;;;8.00;5.30;;;9.90;99.90;;;;;;5015825;28;20423;-68
2023/05/26 03:28:26;;;;;;;6.50;4.70;;;9.90;99.90;;;;;;5016662;28;20470;-68
2023/05/26 03:30:52;;;;;;;18.33;6.43;;;9.90;99.90;;;;;;5011650;28;20419;-69
2023/05/26 03:33:18;;;;;;;15.87;6.67;;;10.00;99.90;;;;;;5015506;28;20232;-69
2023/05/26 03:35:43;;;;;;;18.37;6.30;;;10.00;99.90;;;;;;5013569;28;20425;-69
2023/05/26 03:38:09;;;;;;;12.13;7.77;;;10.00;99.90;;;;;;5020055;28;20224;-68
2023/05/26 03:40:35;;;;;;;14.03;5.97;;;10.10;99.90;;;;;;5017825;28;20205;-69
2023/05/26 03:43:01;;;;;;;13.37;5.17;;;10.10;99.90;;;;;;5017487;28;20263;-69
2023/05/26 03:45:27;;;;;;;17.47;6.17;;;10.10;99.90;;;;;;5014573;28;20262;-68
2023/05/26 03:47:53;;;;;;;15.73;6.00;;;10.20;99.90;;;;;;5006657;28;20481;-68
2023/05/26 03:50:18;;;;;;;14.07;4.87;;;10.20;99.90;;;;;;5005581;28;20447;-68
2023/05/26 03:52:44;;;;;;;21.27;5.83;;;10.30;99.90;;;;;;5007057;28;22101;-70
2023/05/26 03:55:10;;;;;;;18.43;5.83;;;10.30;99.90;;;;;;5005196;28;20234;-69
2023/05/26 03:57:37;;;;;;;16.53;6.20;;;10.40;99.90;;;;;;5005969;28;20546;-68
2023/05/26 04:00:04;;;;;;;18.43;6.07;;;10.40;99.90;;;;;;5003883;28;20442;-69
2023/05/26 04:02:29;;;;;;;19.67;5.53;;;10.50;99.90;;;;;;5008005;28;20488;-69
2023/05/26 04:04:55;;;;;;;18.37;6.47;;;10.50;99.90;;;;;;5010622;28;20445;-70
2023/05/26 04:07:21;;;;;;;20.57;5.50;;;10.60;99.90;;;;;;5010602;28;20671;-69
2023/05/26 04:09:46;;;;;;;11.70;5.30;;;10.60;99.90;;;;;;5009699;28;20443;-68
2023/05/26 04:12:12;;;;;;;12.40;5.77;;;10.70;99.90;;;;;;5009714;28;20257;-68
2023/05/26 04:14:38;;;;;;;19.77;5.60;;;10.80;99.90;;;;;;5010507;28;20178;-68
2023/05/26 04:17:04;;;;;;;15.90;6.00;;;10.70;99.90;;;;;;5009851;28;20203;-68
2023/05/26 04:19:29;;;;;;;14.07;6.47;;;10.90;99.90;;;;;;5011733;28;20178;-69
2023/05/26 04:21:55;;;;;;;13.10;5.33;;;10.90;99.90;;;;;;5012285;28;20254;-68
2023/05/26 04:24:20;;;;;;;15.30;6.13;;;11.10;99.90;;;;;;5010825;28;20547;-68
2023/05/26 04:26:46;;;;;;;13.43;5.23;;;11.40;99.90;;;;;;5010116;28;20208;-69
2023/05/26 04:29:12;;;;;;;12.20;6.40;;;11.60;99.90;;;;;;5011350;28;20184;-70
2023/05/26 04:31:42;;;;;;;21.83;6.47;;;11.90;99.90;;;;;;5009424;28;20213;-71
2023/05/26 04:34:08;;;;;;;16.43;5.30;;;12.30;99.90;;;;;;5008396;28;20180;-69
2023/05/26 04:36:38;;;;;;;12.00;5.83;;;12.50;99.90;;;;;;5009402;28;20958;-69
2023/05/26 04:39:04;;;;;;;17.20;5.00;;;12.50;99.90;;;;;;5008108;28;20411;-70
2023/05/26 04:41:29;;;;;;;9.27;4.97;;;12.70;99.90;;;;;;5011127;28;20510;-70
2023/05/26 04:43:55;;;;;;;15.27;5.93;;;12.60;99.90;;;;;;5010891;28;20428;-70
2023/05/26 04:46:21;;;;;;;17.57;5.60;;;12.60;99.90;;;;;;5009998;28;20215;-70
2023/05/26 04:48:47;;;;;;;15.50;4.80;;;12.50;99.90;;;;;;5009192;28;20256;-70
2023/05/26 04:51:12;;;;;;;8.57;6.53;;;12.30;99.90;;;;;;5007671;28;20222;-70
2023/05/26 04:53:38;;;;;;;14.93;6.63;;;12.40;99.90;;;;;;5011257;28;20434;-69
2023/05/26 04:56:05;;;;;;;11.67;4.73;;;12.70;99.90;;;;;;5014545;28;20647;-70
2023/05/26 04:58:32;;;;;;;15.20;3.70;;;13.30;99.90;;;;;;5003485;28;20185;-70
2023/05/26 05:00:58;;;;;;;7.83;4.20;;;13.30;99.90;;;;;;5015956;28;20427;-69
2023/05/26 05:03:24;;;;;;;12.37;4.07;;;13.50;99.90;;;;;;5019057;28;20492;-69
2023/05/26 05:05:50;;;;;;;10.33;4.07;;;13.90;99.90;;;;;;5018862;28;20425;-68
2023/05/26 05:08:16;;;;;;;16.40;4.00;;;14.20;99.90;;;;;;5019978;28;20217;-69
2023/05/26 05:10:41;;;;;;;9.97;3.87;;;14.70;99.90;;;;;;5011371;28;20248;-70
2023/05/26 05:13:07;;;;;;;14.57;4.20;;;14.90;99.90;;;;;;5008713;28;20419;-69
2023/05/26 05:15:32;;;;;;;12.23;4.23;;;15.10;99.90;;;;;;5022768;28;20184;-69
2023/05/26 05:17:58;;;;;;;7.60;4.00;;;15.40;99.90;;;;;;5015107;28;20222;-70
2023/05/26 05:20:25;;;;;;;9.53;4.77;;;15.80;99.90;;;;;;5023107;28;20192;-70
2023/05/26 05:22:50;;;;;;;14.07;5.03;;;16.20;99.90;;;;;;5015841;28;20534;-69
2023/05/26 05:25:17;;;;;;;15.33;4.63;;;16.60;99.90;;;;;;5021847;28;20425;-70
2023/05/26 05:27:43;;;;;;;8.73;4.17;;;15.80;99.90;;;;;;5014842;28;20620;-70
2023/05/26 05:30:09;;;;;;;14.80;4.77;;;16.30;99.90;;;;;;5018443;28;20460;-70
2023/05/26 05:32:35;;;;;;;8.47;4.43;;;16.20;99.90;;;;;;5023888;28;20188;-69
2023/05/26 05:35:00;;;;;;;9.87;3.50;;;16.10;99.90;;;;;;5015131;28;20423;-70
2023/05/26 05:37:26;;;;;;;13.03;4.33;;;16.20;99.90;;;;;;5023068;28;20572;-69
2023/05/26 05:39:52;;;;;;;10.10;3.70;;;16.10;99.90;;;;;;5019563;28;20190;-70
2023/05/26 05:42:17;;;;;;;20.30;4.60;;;16.20;99.90;;;;;;5014329;28;20188;-69
2023/05/26 05:44:43;;;;;;;10.93;5.60;;;15.80;99.90;;;;;;5017498;28;20639;-70
2023/05/26 05:47:08;;;;;;;11.03;5.20;;;16.00;99.90;;;;;;5013548;28;20688;-70
2023/05/26 05:49:34;;;;;;;13.17;3.70;;;16.10;99.90;;;;;;5011602;28;20236;-71
2023/05/26 05:51:59;;;;;;;11.33;4.80;;;15.80;99.90;;;;;;5011691;28;20190;-70
2023/05/26 05:54:25;;;;;;;14.43;4.03;;;16.50;99.90;;;;;;5018505;28;20196;-70
2023/05/26 05:59:30;;;;;;;10.80;4.40;;;16.90;99.90;;;;;;5059020;28;20546;-69
2023/05/26 06:01:55;;;;;;;11.53;4.90;;;17.60;99.90;;;;;;5069646;28;20561;-69
2023/05/26 06:04:21;;;;;;;7.67;4.37;;;18.10;99.90;;;;;;5064421;28;20212;-69
2023/05/26 06:06:47;;;;;;;15.23;4.60;;;18.80;99.90;;;;;;5073155;28;20233;-69
2023/05/26 06:09:12;;;;;;;11.97;4.73;;;19.00;99.90;;;;;;5058798;28;20643;-70
2023/05/26 06:11:38;;;;;;;10.27;3.50;;;19.00;99.90;;;;;;5057717;28;20172;-71
2023/05/26 06:14:03;;;;;;;10.93;4.13;;;19.60;99.90;;;;;;5066456;28;20636;-70
2023/05/26 06:16:29;;;;;;;11.70;4.23;;;19.20;99.90;;;;;;5065534;28;20561;-70
2023/05/26 06:18:55;;;;;;;13.00;3.97;;;18.80;99.90;;;;;;5067229;28;20230;-70
2023/05/26 06:21:20;;;;;;;8.43;4.30;;;19.40;99.90;;;;;;5073988;28;20182;-71
2023/05/26 06:23:46;;;;;;;9.83;4.67;;;19.20;99.90;;;;;;5062639;28;20169;-71
2023/05/26 06:26:11;;;;;;;12.13;4.37;;;20.30;99.90;;;;;;5049813;28;20638;-71
2023/05/26 06:28:37;;;;;;;8.47;3.40;;;21.00;99.90;;;;;;5055311;28;20589;-70
2023/05/26 06:31:02;;;;;;;7.07;3.50;;;21.10;99.90;;;;;;5056153;28;20175;-71
2023/05/26 06:33:29;;;;;;;8.27;3.63;;;20.90;99.90;;;;;;5059962;28;20183;-70
2023/05/26 06:35:55;;;;;;;8.87;3.50;;;20.80;99.90;;;;;;5068209;28;20481;-70
2023/05/26 06:38:20;;;;;;;10.37;3.80;;;21.30;99.90;;;;;;5070666;28;20475;-69
2023/05/26 06:40:46;;;;;;;9.07;4.37;;;22.20;99.90;;;;;;5077868;28;20169;-70
2023/05/26 06:43:11;;;;;;;16.90;3.93;;;22.00;99.90;;;;;;5075885;28;20177;-70
2023/05/26 06:45:37;;;;;;;11.13;3.60;;;22.30;99.90;;;;;;5074279;28;20181;-71
2023/05/26 06:48:03;;;;;;;11.77;3.93;;;22.20;99.90;;;;;;5073703;28;20193;-70
2023/05/26 06:50:28;;;;;;;11.43;4.30;;;21.60;99.90;;;;;;5076519;28;20186;-70
2023/05/26 06:52:54;;;;;;;9.43;4.10;;;21.30;99.90;;;;;;5073455;28;20209;-70
2023/05/26 06:55:19;;;;;;;12.10;4.83;;;22.00;99.90;;;;;;5061189;28;20204;-69
2023/05/26 06:57:45;;;;;;;9.50;3.67;;;21.70;99.90;;;;;;5076660;28;20216;-70
2023/05/26 07:00:11;;;;;;;10.17;5.10;;;22.30;99.90;;;;;;5074917;28;20178;-70
2023/05/26 07:02:38;;;;;;;8.80;3.63;;;22.20;99.90;;;;;;5074973;28;20189;-71
2023/05/26 07:05:04;;;;;;;10.13;4.50;;;22.00;99.90;;;;;;5064543;28;20470;-70
2023/05/26 07:07:30;;;;;;;7.10;3.40;;;22.50;99.90;;;;;;5076143;28;20436;-70
2023/05/26 07:09:55;;;;;;;11.80;3.97;;;23.00;99.90;;;;;;5069735;28;20178;-69
2023/05/26 07:12:21;;;;;;;9.50;3.73;;;23.00;99.60;;;;;;5061245;28;20942;-70
2023/05/26 07:14:47;;;;;;;7.97;4.20;;;23.00;99.80;;;;;;5054930;28;20170;-70
2023/05/26 07:17:13;;;;;;;8.33;3.03;;;24.30;98.50;;;;;;5063608;28;20262;-70
2023/05/26 07:19:38;;;;;;;13.47;4.10;;;22.50;98.10;;;;;;5052766;28;20538;-71
2023/05/26 07:22:04;;;;;;;9.30;3.83;;;21.80;99.60;;;;;;5059331;28;20625;-70
2023/05/26 07:24:30;;;;;;;7.60;3.60;;;22.90;99.30;;;;;;5061267;28;20656;-71
2023/05/26 07:26:56;;;;;;;8.40;3.23;;;24.40;97.60;;;;;;5049736;28;20592;-70
2023/05/26 07:29:21;;;;;;;6.70;3.47;;;24.60;96.10;;;;;;5059855;28;20182;-71
2023/05/26 07:31:47;;;;;;;12.73;3.73;;;23.20;95.60;;;;;;5062349;28;20193;-70
2023/05/26 07:34:13;;;;;;;8.63;5.10;;;22.70;96.90;;;;;;5061155;28;20201;-70
2023/05/26 07:36:38;;;;;;;9.27;4.13;;;22.90;98.00;;;;;;5063213;28;20251;-71
2023/05/26 07:39:04;;;;;;;6.20;3.43;;;23.00;97.50;;;;;;5058122;28;20273;-71
2023/05/26 07:41:30;;;;;;;6.77;2.50;;;23.60;97.70;;;;;;5058984;28;20197;-70
2023/05/26 07:43:55;;;;;;;7.83;3.87;;;24.40;94.50;;;;;;5062262;28;20492;-70
2023/05/26 07:46:21;;;;;;;13.60;3.97;;;23.60;94.40;;;;;;5062588;28;20194;-70
2023/05/26 07:48:48;;;;;;;8.70;4.57;;;23.80;94.70;;;;;;5050041;28;20174;-70
2023/05/26 07:51:14;;;;;;;15.67;4.80;;;24.30;93.80;;;;;;5062693;28;20637;-70
2023/05/26 07:53:39;;;;;;;9.90;4.30;;;24.00;93.50;;;;;;5050893;28;20428;-71
2023/05/26 07:56:05;;;;;;;11.47;3.40;;;24.00;93.50;;;;;;5061164;28;20806;-71
2023/05/26 07:58:31;;;;;;;10.07;3.87;;;23.10;92.60;;;;;;5057896;28;20213;-71
2023/05/26 08:00:57;;;;;;;11.17;4.27;;;22.80;94.60;;;;;;5054472;28;20258;-70
2023/05/26 08:03:22;;;;;;;10.00;3.80;;;23.50;93.90;;;;;;5057595;28;20209;-70
2023/05/26 08:05:48;;;;;;;10.30;3.53;;;23.20;95.30;;;;;;5053546;28;20180;-71
2023/05/26 08:08:13;;;;;;;7.60;3.20;;;24.60;92.40;;;;;;5051692;28;20562;-70
2023/05/26 08:10:39;;;;;;;8.93;3.67;;;25.00;91.10;;;;;;5060213;28;20503;-70
2023/05/26 08:13:05;;;;;;;8.93;3.67;;;24.40;91.90;;;;;;5053377;28;20171;-70
2023/05/26 08:15:31;;;;;;;11.13;3.37;;;24.90;91.30;;;;;;5063448;28;20178;-70
2023/05/26 08:17:56;;;;;;;6.13;3.37;;;23.50;92.60;;;;;;5061225;28;20206;-70
2023/05/26 08:20:22;;;;;;;7.60;3.37;;;24.10;92.50;;;;;;5060940;28;20281;-70
2023/05/26 08:22:47;;;;;;;10.90;3.77;;;23.30;92.60;;;;;;5050559;28;20706;-70
2023/05/26 08:25:13;;;;;;;12.33;4.20;;;23.20;93.00;;;;;;5068516;28;20197;-70
2023/05/26 08:27:40;;;;;;;8.07;3.13;;;23.80;93.00;;;;;;5065321;28;20633;-69
2023/05/26 08:30:06;;;;;;;7.73;3.90;;;23.70;92.80;;;;;;5051284;28;20553;-70
2023/05/26 08:32:33;;;;;;;9.23;3.73;;;23.20;91.60;;;;;;5058688;28;20909;-70
2023/05/26 08:34:59;;;;;;;10.43;3.70;;;24.20;91.20;;;;;;5039138;28;20432;-70
2023/05/26 08:37:25;;;;;;;12.27;4.10;;;25.70;89.60;;;;;;5064771;28;20436;-71
2023/05/26 08:39:50;;;;;;;8.57;3.13;;;25.00;87.60;;;;;;5060406;28;20249;-70
2023/05/26 08:42:19;;;;;;;10.37;3.50;;;24.40;88.40;;;;;;5055657;28;20178;-70
2023/05/26 08:44:45;;;;;;;10.60;3.50;;;22.70;90.90;;;;;;5043589;28;20162;-70
2023/05/26 08:47:12;;;;;;;9.47;3.53;;;22.60;91.90;;;;;;5049343;28;20433;-71
2023/05/26 08:49:49;;;;;;;13.23;4.93;;;22.60;93.20;;;;;;5046740;28;20182;-71
2023/05/26 08:52:16;;;;;;;10.47;3.90;;;22.90;93.50;;;;;;5038579;28;20775;-70
2023/05/26 08:54:44;;;;;;;10.93;3.57;;;23.10;92.90;;;;;;5050435;28;20746;-70
2023/05/26 08:57:12;;;;;;;11.03;4.30;;;22.40;94.60;;;;;;5050417;28;20529;-71
2023/05/26 08:59:39;;;;;;;8.00;3.50;;;22.60;93.50;;;;;;5057456;28;20544;-69
2023/05/26 09:02:04;;;;;;;12.47;3.80;;;22.80;91.80;;;;;;5060518;28;20424;-70
2023/05/26 09:04:30;;;;;;;7.70;3.57;;;24.10;91.90;;;;;;5057354;28;20864;-71
2023/05/26 09:06:57;;;;;;;6.07;3.30;;;23.70;90.40;;;;;;5058498;28;20201;-71
2023/05/26 09:09:23;;;;;;;9.67;4.03;;;24.60;87.60;;;;;;5059216;28;20481;-69
2023/05/26 09:11:49;;;;;;;13.90;4.00;;;23.30;85.70;;;;;;5058116;28;20852;-70
2023/05/26 09:14:20;;;;;;;8.83;3.40;;;23.30;88.70;;;;;;5051722;28;20508;-70
2023/05/26 09:16:46;;;;;;;8.63;3.17;;;23.80;88.50;;;;;;5045794;28;20205;-71
2023/05/26 09:19:14;;;;;;;9.37;3.53;;;23.40;90.00;;;;;;5060799;28;20452;-71
2023/05/26 09:21:51;;;;;;;12.90;4.07;;;23.10;91.30;;;;;;5040494;28;20486;-71
2023/05/26 09:24:25;;;;;;;11.70;3.23;;;23.70;89.30;;;;;;5042676;28;20487;-70
2023/05/26 09:26:50;;;;;;;5.63;2.63;;;24.00;88.20;;;;;;5053368;28;20450;-71
2023/05/26 09:29:17;;;;;;;8.70;2.77;;;22.80;84.90;;;;;;5041434;28;20453;-71
2023/05/26 09:31:44;;;;;;;12.30;3.00;;;24.40;82.40;;;;;;5052295;28;20205;-71
2023/05/26 09:34:11;;;;;;;9.97;2.50;;;24.20;80.80;;;;;;5048029;28;20429;-71
2023/05/26 09:36:38;;;;;;;8.77;2.93;;;23.90;81.80;;;;;;5056563;28;20445;-70
2023/05/26 09:39:06;;;;;;;10.17;3.67;;;24.60;80.40;;;;;;5052518;28;20453;-70
2023/05/26 09:41:43;;;;;;;6.50;2.80;;;23.60;80.00;;;;;;5066373;28;20424;-71
2023/05/26 09:44:15;;;;;;;6.50;2.43;;;24.30;80.90;;;;;;5056673;28;20413;-70
2023/05/26 09:46:43;;;;;;;6.83;2.93;;;24.80;78.20;;;;;;5055463;28;20432;-71
2023/05/26 09:49:14;;;;;;;5.70;3.50;;;24.80;80.70;;;;;;5052913;28;20448;-72
2023/05/26 09:51:41;;;;;;;7.23;3.73;;;23.60;82.60;;;;;;5059217;28;20416;-71
2023/05/26 09:54:09;;;;;;;8.17;3.27;;;24.00;80.80;;;;;;5065647;28;20413;-71
2023/05/26 09:56:36;;;;;;;7.17;3.27;;;23.90;80.00;;;;;;5054318;28;20452;-70
2023/05/26 09:59:06;;;;;;;5.70;3.63;;;23.90;78.60;;;;;;5053087;28;20523;-71
2023/05/26 10:01:39;;;;;;;6.00;3.40;;;23.90;76.50;;;;;;5052481;28;20426;-69
2023/05/26 10:04:07;;;;;;;6.00;3.13;;;23.30;76.10;;;;;;5054733;28;20416;-71
2023/05/26 10:06:38;;;;;;;7.67;3.10;;;22.90;78.10;;;;;;5049934;28;20451;-71
2023/05/26 10:09:07;;;;;;;7.70;3.77;;;23.10;77.60;;;;;;5050508;28;20728;-71
2023/05/26 10:11:43;;;;;;;4.30;2.80;;;22.40;82.80;;;;;;5050671;28;20899;-70
2023/05/26 10:14:10;;;;;;;6.70;3.07;;;21.30;83.10;;;;;;5047926;28;20907;-70
2023/05/26 10:16:37;;;;;;;7.80;3.13;;;21.20;83.90;;;;;;5058575;28;20468;-70
2023/05/26 10:19:03;;;;;;;11.07;3.90;;;21.60;81.80;;;;;;5060251;28;20519;-70
2023/05/26 10:21:33;;;;;;;12.23;4.20;;;21.80;80.40;;;;;;5055167;28;20425;-71
2023/05/26 10:24:08;;;;;;;11.30;3.00;;;21.20;85.70;;;;;;5047251;28;20890;-71
2023/05/26 10:26:53;;;;;;;5.53;2.73;;;21.20;83.40;;;;;;5053638;28;20522;-70
2023/05/26 10:29:24;;;;;;;9.23;3.77;;;21.20;83.40;;;;;;5052108;28;20927;-69
2023/05/26 10:31:51;;;;;;;7.90;3.83;;;21.80;81.50;;;;;;5046825;28;20443;-70
2023/05/26 10:34:39;;;;;;;7.00;3.10;;;21.50;83.30;;;;;;5058543;28;20447;-70
2023/05/26 10:37:15;;;;;;;6.43;3.33;;;21.10;85.00;;;;;;5052544;28;20436;-70
2023/05/26 10:39:41;;;;;;;17.70;3.97;;;21.00;86.50;;;;;;5060457;28;20400;-69
2023/05/26 10:42:20;;;;;;;9.20;3.60;;;21.20;84.10;;;;;;5048679;28;20909;-70
2023/05/26 10:44:50;;;;;;;7.07;3.90;;;20.90;84.50;;;;;;5046501;28;20445;-70
2023/05/26 10:47:19;;;;;;;10.30;3.40;;;20.90;85.40;;;;;;5059569;28;20439;-70
2023/05/26 10:49:59;;;;;;;7.90;2.90;;;21.10;84.60;;;;;;5052771;28;20452;-70
2023/05/26 10:52:26;;;;;;;11.23;3.80;;;21.00;85.00;;;;;;5050428;28;20418;-71
2023/05/26 10:54:52;;;;;;;11.07;3.10;;;20.30;86.70;;;;;;5059311;28;20531;-70
2023/05/26 10:57:31;;;;;;;5.97;3.23;;;20.30;87.60;;;;;;5057200;28;20433;-71
2023/05/26 10:59:57;;;;;;;8.90;3.50;;;20.70;85.40;;;;;;5050269;28;20419;-71
2023/05/26 11:02:23;;;;;;;7.00;4.23;;;20.60;84.30;;;;;;5061237;28;20397;-70
2023/05/26 11:04:50;;;;;;;5.67;2.90;;;20.70;84.60;;;;;;5057512;28;20801;-71
2023/05/26 11:07:26;;;;;;;13.40;3.80;;;20.80;84.10;;;;;;5058649;28;20460;-71
2023/05/26 11:10:08;;;;;;;7.80;3.30;;;20.80;84.70;;;;;;5049808;28;20422;-71
2023/05/26 11:12:46;;;;;;;11.63;3.00;;;20.70;81.60;;;;;;5057976;28;20419;-71
2023/05/26 11:15:29;;;;;;;7.83;2.93;;;20.10;82.60;;;;;;5065899;28;20493;-71
2023/05/26 11:18:01;;;;;;;4.83;2.43;;;20.20;80.80;;;;;;5053749;28;20597;-70
2023/05/26 11:20:27;;;;;;;6.50;3.00;;;20.30;82.80;;;;;;5065991;28;20409;-71
2023/05/26 11:22:54;;;;;;;6.90;3.00;;;20.30;79.00;;;;;;5058474;28;20780;-71
2023/05/26 11:25:20;;;;;;;6.03;2.97;;;20.30;77.60;;;;;;5068320;28;20426;-71
2023/05/26 11:27:47;;;;;;;13.73;3.77;;;20.40;82.40;;;;;;5060148;28;20773;-71
2023/05/26 11:30:13;;;;;;;8.40;3.60;;;20.30;83.80;;;;;;5060023;28;20562;-71
2023/05/26 11:32:50;;;;;;;4.70;2.20;;;20.10;77.00;;;;;;5060438;28;20511;-71
2023/05/26 11:35:26;;;;;;;4.80;2.00;;;20.10;70.10;;;;;;5056550;28;20186;-71
2023/05/26 11:37:53;;;;;;;6.53;3.77;;;20.20;67.00;;;;;;5053615;28;20455;-71
2023/05/26 11:40:19;;;;;;;3.43;2.33;;;20.10;65.50;;;;;;5059903;28;20508;-71
2023/05/26 11:42:46;;;;;;;4.43;2.10;;;20.10;62.60;;;;;;5063217;28;20408;-71
2023/05/26 11:45:11;;;;;;;3.30;2.20;;;20.00;62.40;;;;;;5061388;28;20627;-70
2023/05/26 11:47:37;;;;;;;5.67;2.20;;;20.00;63.00;;;;;;5056663;28;20459;-71
2023/05/26 11:50:10;;;;;;;9.50;2.40;;;19.80;64.20;;;;;;5061551;28;20175;-69
2023/05/26 11:52:47;;;;;;;4.93;2.80;;;19.80;61.40;;;;;;5058491;28;20173;-69
2023/05/26 11:55:14;;;;;;;5.83;2.33;;;19.90;61.30;;;;;;5060696;28;20869;-70
2023/05/26 11:57:40;;;;;;;7.60;3.40;;;19.50;61.60;;;;;;5061072;28;20464;-71
2023/05/26 12:00:17;;;;;;;5.77;2.70;;;19.80;62.80;;;;;;5055243;28;20417;-70
2023/05/26 12:02:44;;;;;;;6.37;2.27;;;20.00;63.90;;;;;;5040403;28;20418;-70
2023/05/26 12:05:29;;;;;;;9.50;2.60;;;19.90;62.10;;;;;;5057510;28;20415;-71
2023/05/26 12:08:08;;;;;;;5.97;2.50;;;19.80;62.40;;;;;;5053981;28;20718;-71
2023/05/26 12:10:35;;;;;;;12.73;2.83;;;20.00;63.80;;;;;;5043929;28;20457;-70
2023/05/26 12:13:02;;;;;;;6.97;3.30;;;20.20;65.20;;;;;;5037994;28;20413;-71
2023/05/26 12:15:28;;;;;;;6.43;2.27;;;20.30;66.20;;;;;;5060244;28;20782;-69
2023/05/26 12:17:55;;;;;;;6.90;2.83;;;20.00;65.10;;;;;;5052847;28;20854;-72
2023/05/26 12:20:23;;;;;;;8.03;2.30;;;20.00;64.90;;;;;;5050977;28;20943;-71
2023/05/26 12:22:52;;;;;;;5.07;3.10;;;19.90;62.50;;;;;;5063261;28;20416;-71
2023/05/26 12:25:29;;;;;;;6.63;2.70;;;19.90;60.00;;;;;;5043402;28;20432;-70
2023/05/26 12:27:55;;;;;;;6.37;2.17;;;19.90;60.40;;;;;;5058303;28;20586;-69
2023/05/26 12:30:36;;;;;;;4.80;2.27;;;20.00;61.30;;;;;;5055025;28;20421;-69
2023/05/26 12:33:01;;;;;;;7.50;2.60;;;19.90;61.00;;;;;;5046619;28;20181;-70
2023/05/26 12:35:27;;;;;;;7.17;2.70;;;20.00;61.10;;;;;;5059138;28;20812;-69
2023/05/26 12:37:53;;;;;;;5.80;2.97;;;20.10;59.90;;;;;;5061425;28;20234;-72
2023/05/26 12:40:18;;;;;;;6.90;2.40;;;20.00;58.10;;;;;;5050169;28;20697;-69
2023/05/26 12:42:44;;;;;;;8.90;2.30;;;19.80;58.50;;;;;;5058843;28;20167;-70
2023/05/26 12:45:10;;;;;;;6.17;2.67;;;19.80;58.90;;;;;;5053886;28;20180;-71